Time,TemperatureF,DewpointF,PressureIn,WindDirection,WindDirectionDegrees,WindSpeedMPH,WindSpeedGustMPH,Humidity,HourlyPrecipIn,Conditions,Clouds,dailyrainin,SoftwareType,DateUTC
2013-03-04 00:01:00,22.5,17.0,30.08,WNW,302,0.0,0.0,79,0.00,,---,0.00,VWS V14.00,2013-03-04 06:01:00,
2013-03-04 00:07:00,22.7,17.5,30.08,WNW,302,0.0,0.0,80,0.00,,---,0.00,VWS V14.00,2013-03-04 06:07:00,
2013-03-04 00:12:00,22.7,17.5,30.08,WNW,302,0.0,0.0,80,0.00,,---,0.00,VWS V14.00,2013-03-04 06:12:00,
2013-03-04 00:17:00,22.7,17.5,30.08,WNW,302,0.0,0.0,80,0.00,,---,0.00,VWS V14.00,2013-03-04 06:17:00,
2013-03-04 00:22:00,22.7,17.5,30.08,WNW,302,0.0,1.0,80,0.00,,---,0.00,VWS V14.00,2013-03-04 06:22:00,
2013-03-04 00:27:00,22.9,17.7,30.08,WNW,302,0.0,0.0,80,0.00,,---,0.00,VWS V14.00,2013-03-04 06:27:00,
2013-03-04 00:32:00,22.9,17.7,30.08,WNW,302,0.0,2.0,80,0.00,,---,0.00,VWS V14.00,2013-03-04 06:32:00,
2013-03-04 00:37:00,22.9,17.7,30.08,WNW,302,0.0,2.0,80,0.00,,---,0.00,VWS V14.00,2013-03-04 06:37:00,
2013-03-04 00:42:00,22.9,18.0,30.08,WNW,302,1.0,1.0,81,0.00,,---,0.00,VWS V14.00,2013-03-04 06:42:00,
2013-03-04 00:47:00,22.9,18.0,30.08,WNW,302,1.0,1.0,81,0.00,,---,0.00,VWS V14.00,2013-03-04 06:47:00,
2013-03-04 00:52:00,22.7,17.8,30.08,WNW,302,1.0,2.0,81,0.00,,---,0.00,VWS V14.00,2013-03-04 06:52:00,
2013-03-04 00:57:00,22.7,17.8,30.08,WNW,302,1.0,1.0,81,0.00,,---,0.00,VWS V14.00,2013-03-04 06:57:00,
2013-03-04 01:02:00,22.7,17.8,30.08,WNW,302,0.0,0.0,81,0.00,,---,0.00,VWS V14.00,2013-03-04 07:02:00,
2013-03-04 01:08:00,22.7,17.8,30.08,WNW,302,0.0,0.0,81,0.00,,---,0.00,VWS V14.00,2013-03-04 07:08:00,
2013-03-04 01:13:00,22.7,18.0,30.08,WNW,302,0.0,0.0,82,0.00,,---,0.00,VWS V14.00,2013-03-04 07:13:00,
2013-03-04 01:18:00,22.9,18.2,30.09,WNW,302,0.0,0.0,82,0.00,,---,0.00,VWS V14.00,2013-03-04 07:18:00,
2013-03-04 01:23:00,23.0,18.3,30.09,WNW,302,0.0,0.0,82,0.00,,---,0.00,VWS V14.00,2013-03-04 07:23:00,
2013-03-04 01:28:00,23.2,18.8,30.09,WNW,302,0.0,0.0,83,0.00,,---,0.00,VWS V14.00,2013-03-04 07:28:00,
2013-03-04 01:33:00,23.3,18.9,30.09,WNW,302,0.0,0.0,83,0.00,,---,0.00,VWS V14.00,2013-03-04 07:33:00,
2013-03-04 01:38:00,23.5,19.1,30.09,WNW,302,0.0,0.0,83,0.00,,---,0.00,VWS V14.00,2013-03-04 07:38:00,
2013-03-04 01:43:00,23.5,19.1,30.09,WNW,302,0.0,1.0,83,0.00,,---,0.00,VWS V14.00,2013-03-04 07:43:00,
2013-03-04 01:48:00,23.6,19.2,30.09,WNW,302,0.0,0.0,83,0.00,,---,0.00,VWS V14.00,2013-03-04 07:48:00,
2013-03-04 01:53:00,23.6,19.2,30.09,WNW,302,1.0,1.0,83,0.00,,---,0.00,VWS V14.00,2013-03-04 07:53:00,
2013-03-04 01:58:00,23.6,19.5,30.09,WNW,302,0.0,1.0,84,0.00,,---,0.00,VWS V14.00,2013-03-04 07:58:00,
2013-03-04 02:03:00,23.6,19.5,30.09,WNW,302,0.0,3.0,84,0.00,,---,0.00,VWS V14.00,2013-03-04 08:03:00,
2013-03-04 02:08:00,23.8,19.7,30.09,WNW,302,1.0,1.0,84,0.00,,---,0.00,VWS V14.00,2013-03-04 08:08:00,
2013-03-04 02:13:00,23.8,19.7,30.09,WNW,302,0.0,0.0,84,0.00,,---,0.00,VWS V14.00,2013-03-04 08:13:00,
2013-03-04 02:18:00,23.9,19.8,30.08,WNW,302,0.0,2.0,84,0.00,,---,0.00,VWS V14.00,2013-03-04 08:18:00,
2013-03-04 02:23:00,24.1,20.2,30.08,WNW,302,1.0,2.0,85,0.00,,---,0.00,VWS V14.00,2013-03-04 08:23:00,
2013-03-04 02:28:00,24.1,20.2,30.08,WNW,302,1.0,1.0,85,0.00,,---,0.00,VWS V14.00,2013-03-04 08:28:00,
2013-03-04 02:33:00,24.1,20.2,30.07,WNW,302,0.0,0.0,85,0.00,,---,0.00,VWS V14.00,2013-03-04 08:33:00,
2013-03-04 02:38:00,24.2,20.4,30.07,WNW,302,0.0,0.0,85,0.00,,---,0.00,VWS V14.00,2013-03-04 08:38:00,
2013-03-04 02:43:00,24.2,20.4,30.07,WNW,302,0.0,1.0,85,0.00,,---,0.00,VWS V14.00,2013-03-04 08:43:00,
2013-03-04 02:48:00,24.2,20.4,30.07,WNW,302,1.0,2.0,85,0.00,,---,0.00,VWS V14.00,2013-03-04 08:48:00,
2013-03-04 02:53:00,24.1,20.2,30.07,WNW,302,1.0,1.0,85,0.00,,---,0.00,VWS V14.00,2013-03-04 08:53:00,
2013-03-04 02:59:00,24.1,20.2,30.07,WNW,302,0.0,1.0,85,0.00,,---,0.00,VWS V14.00,2013-03-04 08:59:00,
2013-03-04 03:04:00,24.1,20.2,30.07,WNW,302,0.0,0.0,85,0.00,,---,0.00,VWS V14.00,2013-03-04 09:04:00,
2013-03-04 03:09:00,24.1,20.2,30.07,WNW,302,0.0,0.0,85,0.00,,---,0.00,VWS V14.00,2013-03-04 09:09:00,
2013-03-04 03:14:00,24.1,20.2,30.07,WNW,302,0.0,0.0,85,0.00,,---,0.00,VWS V14.00,2013-03-04 09:14:00,
2013-03-04 03:19:00,24.1,20.2,30.06,WNW,302,0.0,0.0,85,0.00,,---,0.00,VWS V14.00,2013-03-04 09:19:00,
2013-03-04 03:24:00,24.1,20.2,30.06,WNW,302,0.0,0.0,85,0.00,,---,0.00,VWS V14.00,2013-03-04 09:24:00,
2013-03-04 03:29:00,24.1,20.2,30.06,WNW,302,0.0,0.0,85,0.00,,---,0.00,VWS V14.00,2013-03-04 09:29:00,
2013-03-04 03:34:00,24.1,20.2,30.05,WNW,302,0.0,0.0,85,0.00,,---,0.00,VWS V14.00,2013-03-04 09:34:00,
2013-03-04 03:39:00,24.1,20.2,30.05,WNW,302,0.0,0.0,85,0.00,,---,0.00,VWS V14.00,2013-03-04 09:39:00,
2013-03-04 03:44:00,24.4,20.5,30.05,NW,308,2.0,4.0,85,0.00,,---,0.00,VWS V14.00,2013-03-04 09:44:00,
2013-03-04 03:49:00,24.5,20.6,30.06,NW,309,3.0,4.0,85,0.00,,---,0.00,VWS V14.00,2013-03-04 09:49:00,
2013-03-04 03:54:00,24.7,20.8,30.06,NW,312,5.0,5.0,85,0.00,,---,0.00,VWS V14.00,2013-03-04 09:54:00,
2013-03-04 03:59:00,24.7,20.8,30.06,NW,319,4.0,6.0,85,0.00,,---,0.00,VWS V14.00,2013-03-04 09:59:00,
2013-03-04 04:05:00,24.8,20.9,30.06,NNW,336,5.0,5.0,85,0.00,,---,0.00,VWS V14.00,2013-03-04 10:05:00,
2013-03-04 04:10:00,25.0,20.9,30.06,NNW,348,4.0,4.0,84,0.00,,---,0.00,VWS V14.00,2013-03-04 10:10:00,
2013-03-04 04:15:00,25.1,21.0,30.06,NNE,30,3.0,7.0,84,0.00,,---,0.00,VWS V14.00,2013-03-04 10:15:00,
2013-03-04 04:20:00,25.3,20.9,30.06,East,90,10.0,10.0,83,0.00,,---,0.00,VWS V14.00,2013-03-04 10:20:00,
2013-03-04 04:25:00,25.4,21.0,30.06,East,99,4.0,9.0,83,0.00,,---,0.00,VWS V14.00,2013-03-04 10:25:00,
2013-03-04 04:30:00,25.7,21.3,30.06,East,100,5.0,9.0,83,0.00,,---,0.00,VWS V14.00,2013-03-04 10:30:00,
2013-03-04 04:35:00,25.8,21.1,30.05,East,99,3.0,5.0,82,0.00,,---,0.00,VWS V14.00,2013-03-04 10:35:00,
2013-03-04 04:40:00,25.8,21.1,30.05,East,101,5.0,9.0,82,0.00,,---,0.00,VWS V14.00,2013-03-04 10:40:00,
2013-03-04 04:45:00,26.0,21.3,30.05,ESE,102,11.0,11.0,82,0.00,,---,0.00,VWS V14.00,2013-03-04 10:45:00,
2013-03-04 04:50:00,26.0,21.3,30.05,ESE,102,7.0,7.0,82,0.00,,---,0.00,VWS V14.00,2013-03-04 10:50:00,
2013-03-04 04:55:00,26.1,21.1,30.05,East,101,6.0,10.0,81,0.00,,---,0.00,VWS V14.00,2013-03-04 10:55:00,
2013-03-04 05:00:00,26.1,21.1,30.05,East,101,7.0,13.0,81,0.00,,---,0.00,VWS V14.00,2013-03-04 11:00:00,
2013-03-04 05:05:00,26.1,21.1,30.04,ESE,102,6.0,13.0,81,0.00,,---,0.00,VWS V14.00,2013-03-04 11:05:00,
2013-03-04 05:10:00,26.1,21.1,30.04,ESE,102,7.0,12.0,81,0.00,,---,0.00,VWS V14.00,2013-03-04 11:10:00,
2013-03-04 05:15:00,26.1,21.1,30.04,East,101,6.0,9.0,81,0.00,,---,0.00,VWS V14.00,2013-03-04 11:15:00,
2013-03-04 05:20:00,26.1,21.1,30.04,East,98,3.0,7.0,81,0.00,,---,0.00,VWS V14.00,2013-03-04 11:20:00,
2013-03-04 05:26:00,26.1,21.4,30.04,East,99,7.0,9.0,82,0.00,,---,0.00,VWS V14.00,2013-03-04 11:26:00,
2013-03-04 05:31:00,26.3,21.6,30.04,East,101,10.0,10.0,82,0.00,,---,0.00,VWS V14.00,2013-03-04 11:31:00,
2013-03-04 05:36:00,26.3,21.6,30.04,East,101,6.0,12.0,82,0.00,,---,0.00,VWS V14.00,2013-03-04 11:36:00,
2013-03-04 05:41:00,26.4,21.4,30.04,ESE,103,11.0,13.0,81,0.00,,---,0.00,VWS V14.00,2013-03-04 11:41:00,
2013-03-04 05:46:00,26.4,21.4,30.04,ESE,102,10.0,15.0,81,0.00,,---,0.00,VWS V14.00,2013-03-04 11:46:00,
2013-03-04 05:51:00,26.4,21.4,30.04,East,101,7.0,7.0,81,0.00,,---,0.00,VWS V14.00,2013-03-04 11:51:00,
2013-03-04 05:56:00,26.4,21.4,30.04,East,101,7.0,7.0,81,0.00,,---,0.00,VWS V14.00,2013-03-04 11:56:00,
2013-03-04 06:01:00,26.7,21.7,30.04,ESE,103,12.0,12.0,81,0.00,,---,0.00,VWS V14.00,2013-03-04 12:01:00,
2013-03-04 06:06:00,26.7,21.7,30.04,ESE,102,13.0,13.0,81,0.00,,---,0.00,VWS V14.00,2013-03-04 12:06:00,
2013-03-04 06:11:00,26.9,21.9,30.04,ESE,103,5.0,13.0,81,0.00,,---,0.00,VWS V14.00,2013-03-04 12:11:00,
2013-03-04 06:16:00,27.0,22.0,30.04,ESE,103,10.0,12.0,81,0.00,,---,0.00,VWS V14.00,2013-03-04 12:16:00,
2013-03-04 06:21:00,27.0,22.0,30.04,ESE,102,11.0,13.0,81,0.00,,---,0.00,VWS V14.00,2013-03-04 12:21:00,
2013-03-04 06:26:00,27.2,22.1,30.04,ESE,102,8.0,13.0,81,0.00,,---,0.00,VWS V14.00,2013-03-04 12:26:00,
2013-03-04 06:31:00,27.2,22.1,30.04,ESE,105,10.0,13.0,81,0.00,,---,0.00,VWS V14.00,2013-03-04 12:31:00,
2013-03-04 06:36:00,27.3,22.2,30.04,ESE,103,10.0,12.0,81,0.00,,---,0.00,VWS V14.00,2013-03-04 12:36:00,
2013-03-04 06:41:00,27.3,22.2,30.04,ESE,105,12.0,12.0,81,0.00,,---,0.00,VWS V14.00,2013-03-04 12:41:00,
2013-03-04 06:46:00,27.5,22.5,30.05,ESE,105,11.0,12.0,81,0.00,,---,0.00,VWS V14.00,2013-03-04 12:46:00,
2013-03-04 06:51:00,27.5,22.5,30.05,ESE,105,12.0,12.0,81,0.00,,---,0.00,VWS V14.00,2013-03-04 12:51:00,
2013-03-04 06:56:00,27.5,22.5,30.05,ESE,103,11.0,12.0,81,0.00,,---,0.00,VWS V14.00,2013-03-04 12:56:00,
2013-03-04 07:02:00,27.9,22.5,30.04,ESE,103,10.0,14.0,80,0.00,,---,0.00,VWS V14.00,2013-03-04 13:02:00,
2013-03-04 07:07:00,28.1,22.7,30.04,ESE,104,13.0,13.0,80,0.00,,---,0.00,VWS V14.00,2013-03-04 13:07:00,
2013-03-04 07:12:00,28.1,22.7,30.04,ESE,104,13.0,14.0,80,0.00,,---,0.00,VWS V14.00,2013-03-04 13:12:00,
2013-03-04 07:17:00,28.2,22.8,30.04,ESE,103,12.0,14.0,80,0.00,,---,0.00,VWS V14.00,2013-03-04 13:17:00,
2013-03-04 07:22:00,28.2,22.8,30.04,ESE,103,12.0,12.0,80,0.00,,---,0.00,VWS V14.00,2013-03-04 13:22:00,
2013-03-04 07:27:00,28.4,22.7,30.04,ESE,105,13.0,17.0,79,0.00,,---,0.00,VWS V14.00,2013-03-04 13:27:00,
2013-03-04 07:32:00,28.4,22.7,30.03,ESE,103,11.0,15.0,79,0.00,,---,0.00,VWS V14.00,2013-03-04 13:32:00,
2013-03-04 07:37:00,28.5,22.5,30.03,ESE,105,16.0,17.0,78,0.00,,---,0.00,VWS V14.00,2013-03-04 13:37:00,
2013-03-04 07:43:00,28.5,22.5,30.03,East,100,10.0,17.0,78,0.00,,---,0.00,VWS V14.00,2013-03-04 13:43:00,
2013-03-04 07:48:00,28.7,22.7,30.03,East,98,18.0,18.0,78,0.00,,---,0.00,VWS V14.00,2013-03-04 13:48:00,
2013-03-04 07:53:00,28.8,22.8,30.03,ESE,107,18.0,19.0,78,0.00,,---,0.00,VWS V14.00,2013-03-04 13:53:00,
2013-03-04 07:58:00,28.8,22.8,30.03,ESE,103,15.0,15.0,78,0.00,,---,0.00,VWS V14.00,2013-03-04 13:58:00,
2013-03-04 08:03:00,29.0,23.0,30.03,East,101,12.0,17.0,78,0.00,,---,0.00,VWS V14.00,2013-03-04 14:03:00,
2013-03-04 08:08:00,29.0,23.0,30.03,ESE,105,14.0,14.0,78,0.00,,---,0.00,VWS V14.00,2013-03-04 14:08:00,
2013-03-04 08:13:00,29.0,23.0,30.03,ESE,103,13.0,15.0,78,0.00,,---,0.00,VWS V14.00,2013-03-04 14:13:00,
2013-03-04 08:18:00,29.1,23.1,30.02,ESE,103,12.0,17.0,78,0.00,,---,0.00,VWS V14.00,2013-03-04 14:18:00,
2013-03-04 08:23:00,29.1,22.8,30.02,East,101,16.0,16.0,77,0.00,,---,0.00,VWS V14.00,2013-03-04 14:23:00,
2013-03-04 08:28:00,29.3,23.0,30.02,ESE,103,16.0,17.0,77,0.00,,---,0.00,VWS V14.00,2013-03-04 14:28:00,
2013-03-04 08:33:00,29.3,23.0,30.02,ESE,103,17.0,18.0,77,0.00,,---,0.00,VWS V14.00,2013-03-04 14:33:00,
2013-03-04 08:39:00,29.3,23.0,30.02,ESE,104,16.0,17.0,77,0.00,,---,0.00,VWS V14.00,2013-03-04 14:39:00,
2013-03-04 08:44:00,29.3,23.3,30.02,ESE,104,18.0,18.0,78,0.00,,---,0.00,VWS V14.00,2013-03-04 14:44:00,
2013-03-04 08:49:00,29.1,23.4,30.01,ESE,103,16.0,18.0,79,0.00,,---,0.00,VWS V14.00,2013-03-04 14:49:00,
2013-03-04 08:54:00,29.1,23.4,30.01,ESE,103,17.0,18.0,79,0.00,,---,0.00,VWS V14.00,2013-03-04 14:54:00,
2013-03-04 08:59:00,29.1,23.7,30.01,ESE,102,20.0,21.0,80,0.00,,---,0.00,VWS V14.00,2013-03-04 14:59:00,
2013-03-04 09:04:00,29.0,23.9,30.01,ESE,103,16.0,19.0,81,0.00,,---,0.00,VWS V14.00,2013-03-04 15:04:00,
2013-03-04 09:09:00,28.8,24.3,30.01,ESE,108,17.0,18.0,83,0.00,,---,0.00,VWS V14.00,2013-03-04 15:09:00,
2013-03-04 09:14:00,28.8,24.3,30.01,ESE,108,16.0,16.0,83,0.00,,---,0.00,VWS V14.00,2013-03-04 15:14:00,
2013-03-04 09:19:00,28.8,24.6,30.01,East,101,16.0,16.0,84,0.00,,---,0.00,VWS V14.00,2013-03-04 15:19:00,
2013-03-04 09:24:00,28.8,24.6,30.01,ESE,109,17.0,21.0,84,0.00,,---,0.00,VWS V14.00,2013-03-04 15:24:00,
2013-03-04 09:29:00,28.8,24.9,30.01,ESE,107,18.0,19.0,85,0.00,,---,0.00,VWS V14.00,2013-03-04 15:29:00,
2013-03-04 09:34:00,29.0,25.1,30.01,ESE,105,16.0,16.0,85,0.00,,---,0.00,VWS V14.00,2013-03-04 15:34:00,
2013-03-04 09:40:00,29.1,25.2,30.01,ESE,106,13.0,16.0,85,0.00,,---,0.00,VWS V14.00,2013-03-04 15:40:00,
2013-03-04 09:45:00,29.0,25.1,30.01,ESE,107,20.0,20.0,85,0.00,,---,0.00,VWS V14.00,2013-03-04 15:45:00,
2013-03-04 09:50:00,28.8,25.1,30.01,ESE,106,12.0,20.0,86,0.00,,---,0.00,VWS V14.00,2013-03-04 15:50:00,
2013-03-04 09:55:00,28.8,25.7,30.01,East,92,13.0,20.0,88,0.00,,---,0.00,VWS V14.00,2013-03-04 15:55:00,
2013-03-04 10:00:00,28.8,26.0,30.01,ESE,111,17.0,17.0,89,0.00,,---,0.00,VWS V14.00,2013-03-04 16:00:00,
2013-03-04 10:05:00,29.0,26.2,30.00,ESE,104,11.0,18.0,89,0.00,,---,0.00,VWS V14.00,2013-03-04 16:05:00,
2013-03-04 10:10:00,29.1,26.0,30.00,ESE,102,16.0,19.0,88,0.00,,---,0.00,VWS V14.00,2013-03-04 16:10:00,
2013-03-04 10:15:00,29.3,26.2,30.00,East,99,9.0,19.0,88,0.00,,---,0.00,VWS V14.00,2013-03-04 16:15:00,
2013-03-04 10:20:00,29.4,26.0,30.00,ESE,107,14.0,19.0,87,0.00,,---,0.00,VWS V14.00,2013-03-04 16:20:00,
2013-03-04 10:25:00,29.4,26.0,30.00,East,101,19.0,21.0,87,0.00,,---,0.00,VWS V14.00,2013-03-04 16:25:00,
2013-03-04 10:30:00,29.5,26.1,30.00,ESE,105,16.0,16.0,87,0.00,,---,0.00,VWS V14.00,2013-03-04 16:30:00,
2013-03-04 10:35:00,29.7,26.0,29.99,ESE,102,19.0,19.0,86,0.00,,---,0.00,VWS V14.00,2013-03-04 16:35:00,
2013-03-04 10:40:00,29.7,26.0,29.99,East,98,14.0,21.0,86,0.00,,---,0.00,VWS V14.00,2013-03-04 16:40:00,
2013-03-04 10:45:00,29.8,26.1,29.99,East,101,14.0,18.0,86,0.00,,---,0.00,VWS V14.00,2013-03-04 16:45:00,
2013-03-04 10:50:00,29.8,25.9,29.98,East,93,11.0,18.0,85,0.00,,---,0.00,VWS V14.00,2013-03-04 16:50:00,
2013-03-04 10:55:00,30.0,26.3,29.98,East,98,7.0,14.0,86,0.00,,---,0.00,VWS V14.00,2013-03-04 16:55:00,
2013-03-04 11:00:00,30.1,26.1,29.98,East,95,10.0,20.0,85,0.00,,---,0.00,VWS V14.00,2013-03-04 17:00:00,
2013-03-04 11:06:00,30.4,26.4,29.97,East,100,12.0,19.0,85,0.00,,---,0.00,VWS V14.00,2013-03-04 17:06:00,
2013-03-04 11:11:00,30.7,26.7,29.97,ESE,103,14.0,14.0,85,0.00,,---,0.00,VWS V14.00,2013-03-04 17:11:00,
2013-03-04 11:16:00,30.7,26.7,29.97,East,97,12.0,13.0,85,0.00,,---,0.00,VWS V14.00,2013-03-04 17:16:00,
2013-03-04 11:21:00,30.6,26.4,29.97,East,99,17.0,20.0,84,0.00,,---,0.00,VWS V14.00,2013-03-04 17:21:00,
2013-03-04 11:26:00,30.9,26.9,29.97,ESE,102,20.0,20.0,85,0.00,,---,0.00,VWS V14.00,2013-03-04 17:26:00,
2013-03-04 11:31:00,30.7,26.5,29.97,East,101,15.0,19.0,84,0.00,,---,0.00,VWS V14.00,2013-03-04 17:31:00,
2013-03-04 11:36:00,31.0,27.0,29.97,ESE,102,16.0,16.0,85,0.00,,---,0.00,VWS V14.00,2013-03-04 17:36:00,
2013-03-04 11:41:00,31.3,27.0,29.97,East,93,10.0,14.0,84,0.00,,---,0.00,VWS V14.00,2013-03-04 17:41:00,
2013-03-04 11:46:00,31.6,27.0,29.96,ESE,102,19.0,19.0,83,0.00,,---,0.00,VWS V14.00,2013-03-04 17:46:00,
2013-03-04 11:51:00,32.8,28.5,29.96,ESE,103,9.0,15.0,84,0.00,,---,0.00,VWS V14.00,2013-03-04 17:51:00,
2013-03-04 11:56:00,32.5,27.3,29.96,East,94,8.0,14.0,81,0.00,,---,0.00,VWS V14.00,2013-03-04 17:56:00,
2013-03-04 12:01:00,32.7,27.5,29.96,East,100,14.0,18.0,81,0.00,,---,0.00,VWS V14.00,2013-03-04 18:01:00,
2013-03-04 12:06:00,32.5,27.3,29.96,East,97,13.0,13.0,81,0.00,,---,0.00,VWS V14.00,2013-03-04 18:06:00,
2013-03-04 12:11:00,32.4,26.9,29.96,East,94,6.0,13.0,80,0.00,,---,0.00,VWS V14.00,2013-03-04 18:11:00,
2013-03-04 12:16:00,32.8,27.3,29.94,East,91,7.0,9.0,80,0.00,,---,0.00,VWS V14.00,2013-03-04 18:16:00,
2013-03-04 12:22:00,32.9,27.4,29.94,East,94,7.0,10.0,80,0.00,,---,0.00,VWS V14.00,2013-03-04 18:22:00,
2013-03-04 12:27:00,32.5,26.7,29.94,East,96,6.0,12.0,79,0.00,,---,0.00,VWS V14.00,2013-03-04 18:27:00,
2013-03-04 12:29:00,32.7,26.9,29.94,East,94,9.0,11.0,79,0.00,,---,0.00,VWS V14.00,2013-03-04 18:29:00,
2013-03-04 12:30:00,32.7,26.9,29.94,East,92,9.0,14.0,79,0.00,,---,0.00,VWS V14.00,2013-03-04 18:30:00,
2013-03-04 12:35:00,32.7,26.9,29.93,East,90,5.0,7.0,79,0.00,,---,0.00,VWS V14.00,2013-03-04 18:35:00,
2013-03-04 12:40:00,32.9,27.4,29.93,East,101,10.0,10.0,80,0.00,,---,0.00,VWS V14.00,2013-03-04 18:40:00,
2013-03-04 12:45:00,32.8,27.0,29.93,East,90,7.0,7.0,79,0.00,,---,0.00,VWS V14.00,2013-03-04 18:45:00,
2013-03-04 12:50:00,32.7,26.6,29.93,East,94,2.0,4.0,78,0.00,,---,0.00,VWS V14.00,2013-03-04 18:50:00,
2013-03-04 12:55:00,32.8,27.0,29.93,East,92,12.0,12.0,79,0.00,,---,0.00,VWS V14.00,2013-03-04 18:55:00,
2013-03-04 13:00:00,32.8,26.7,29.93,East,92,10.0,13.0,78,0.00,,---,0.00,VWS V14.00,2013-03-04 19:00:00,
2013-03-04 13:05:00,32.8,26.7,29.92,East,92,7.0,10.0,78,0.00,,---,0.00,VWS V14.00,2013-03-04 19:05:00,
2013-03-04 13:11:00,32.8,26.7,29.92,East,92,7.0,17.0,78,0.00,,---,0.00,VWS V14.00,2013-03-04 19:11:00,
2013-03-04 13:16:00,33.1,27.3,29.92,East,88,6.0,6.0,79,0.00,,---,0.00,VWS V14.00,2013-03-04 19:16:00,
2013-03-04 13:21:00,33.4,27.3,29.91,East,94,6.0,12.0,78,0.00,,---,0.00,VWS V14.00,2013-03-04 19:21:00,
2013-03-04 13:26:00,34.1,28.3,29.91,East,91,2.0,5.0,79,0.00,,---,0.00,VWS V14.00,2013-03-04 19:26:00,
2013-03-04 13:31:00,34.7,28.5,29.91,East,90,5.0,7.0,78,0.00,,---,0.00,VWS V14.00,2013-03-04 19:31:00,
2013-03-04 13:36:00,34.7,28.2,29.91,East,89,5.0,6.0,77,0.00,,---,0.00,VWS V14.00,2013-03-04 19:36:00,
2013-03-04 13:41:00,34.6,27.8,29.91,East,86,3.0,7.0,76,0.00,,---,0.00,VWS V14.00,2013-03-04 19:41:00,
2013-03-04 13:46:00,34.7,27.9,29.90,ENE,74,3.0,7.0,76,0.00,,---,0.00,VWS V14.00,2013-03-04 19:46:00,
2013-03-04 13:51:00,35.3,28.2,29.90,East,82,4.0,10.0,75,0.00,,---,0.00,VWS V14.00,2013-03-04 19:51:00,
2013-03-04 13:56:00,35.3,27.9,29.90,East,87,5.0,5.0,74,0.00,,---,0.00,VWS V14.00,2013-03-04 19:56:00,
2013-03-04 14:01:00,35.2,27.4,29.89,East,84,5.0,7.0,73,0.00,,---,0.00,VWS V14.00,2013-03-04 20:01:00,
2013-03-04 14:06:00,34.7,27.0,29.89,East,91,5.0,7.0,73,0.00,,---,0.00,VWS V14.00,2013-03-04 20:06:00,
2013-03-04 14:11:00,34.3,26.9,29.89,East,87,7.0,11.0,74,0.00,,---,0.00,VWS V14.00,2013-03-04 20:11:00,
2013-03-04 14:16:00,34.3,26.9,29.88,East,89,9.0,9.0,74,0.00,,---,0.00,VWS V14.00,2013-03-04 20:16:00,
2013-03-04 14:21:00,33.8,26.4,29.88,East,92,6.0,12.0,74,0.00,,---,0.00,VWS V14.00,2013-03-04 20:21:00,
2013-03-04 14:26:00,33.8,26.7,29.88,East,87,5.0,6.0,75,0.00,,---,0.00,VWS V14.00,2013-03-04 20:26:00,
2013-03-04 14:32:00,33.7,26.3,29.87,East,89,7.0,11.0,74,0.00,,---,0.00,VWS V14.00,2013-03-04 20:32:00,
2013-03-04 14:37:00,33.5,26.4,29.87,East,86,2.0,9.0,75,0.00,,---,0.00,VWS V14.00,2013-03-04 20:37:00,
2013-03-04 14:42:00,33.5,26.4,29.87,East,91,6.0,6.0,75,0.00,,---,0.00,VWS V14.00,2013-03-04 20:42:00,
2013-03-04 14:47:00,33.5,26.4,29.89,East,90,2.0,2.0,75,0.00,,---,0.00,VWS V14.00,2013-03-04 20:47:00,
2013-03-04 14:52:00,33.5,26.4,29.89,East,84,4.0,4.0,75,0.00,,---,0.00,VWS V14.00,2013-03-04 20:52:00,
2013-03-04 14:57:00,33.4,26.7,29.89,East,84,2.0,6.0,76,0.00,,---,0.00,VWS V14.00,2013-03-04 20:57:00,
2013-03-04 15:02:00,33.4,26.7,29.90,East,85,4.0,5.0,76,0.00,,---,0.00,VWS V14.00,2013-03-04 21:02:00,
2013-03-04 15:07:00,33.2,26.1,29.90,East,88,4.0,6.0,75,0.00,,---,0.00,VWS V14.00,2013-03-04 21:07:00,
2013-03-04 15:12:00,33.2,26.5,29.90,East,88,3.0,4.0,76,0.00,,---,0.00,VWS V14.00,2013-03-04 21:12:00,
2013-03-04 15:17:00,33.2,26.5,29.89,East,88,3.0,3.0,76,0.00,,---,0.00,VWS V14.00,2013-03-04 21:17:00,
2013-03-04 15:22:00,33.1,26.4,29.89,East,86,3.0,4.0,76,0.00,,---,0.00,VWS V14.00,2013-03-04 21:22:00,
2013-03-04 15:27:00,33.1,26.7,29.89,East,86,7.0,10.0,77,0.00,,---,0.00,VWS V14.00,2013-03-04 21:27:00,
2013-03-04 15:32:00,33.1,26.7,29.89,East,86,2.0,6.0,77,0.00,,---,0.00,VWS V14.00,2013-03-04 21:32:00,
2013-03-04 15:37:00,33.1,26.7,29.89,East,86,4.0,4.0,77,0.00,,---,0.00,VWS V14.00,2013-03-04 21:37:00,
2013-03-04 15:42:00,33.1,27.0,29.89,East,86,2.0,4.0,78,0.00,,---,0.00,VWS V14.00,2013-03-04 21:42:00,
2013-03-04 15:47:00,33.1,27.0,29.89,East,88,2.0,4.0,78,0.00,,---,0.00,VWS V14.00,2013-03-04 21:47:00,
2013-03-04 15:52:00,32.9,26.8,29.89,East,88,2.0,5.0,78,0.00,,---,0.00,VWS V14.00,2013-03-04 21:52:00,
2013-03-04 15:57:00,32.9,26.8,29.89,East,88,5.0,7.0,78,0.00,,---,0.00,VWS V14.00,2013-03-04 21:57:00,
2013-03-04 16:02:00,32.9,27.1,29.89,East,94,2.0,11.0,79,0.00,,---,0.00,VWS V14.00,2013-03-04 22:02:00,
2013-03-04 16:07:00,32.9,27.1,29.89,East,92,2.0,5.0,79,0.00,,---,0.00,VWS V14.00,2013-03-04 22:07:00,
2013-03-04 16:12:00,32.9,27.1,29.89,East,92,1.0,3.0,79,0.00,,---,0.00,VWS V14.00,2013-03-04 22:12:00,
2013-03-04 16:17:00,32.8,27.0,29.89,East,91,6.0,7.0,79,0.00,,---,0.00,VWS V14.00,2013-03-04 22:17:00,
2013-03-04 16:22:00,32.8,27.3,29.89,East,90,2.0,6.0,80,0.00,,---,0.00,VWS V14.00,2013-03-04 22:22:00,
2013-03-04 16:28:00,32.8,27.3,29.89,East,89,4.0,6.0,80,0.00,,---,0.00,VWS V14.00,2013-03-04 22:28:00,
2013-03-04 16:33:00,32.7,27.2,29.89,East,88,5.0,7.0,80,0.00,,---,0.00,VWS V14.00,2013-03-04 22:33:00,
2013-03-04 16:38:00,32.7,27.2,29.89,East,91,5.0,6.0,80,0.00,,---,0.00,VWS V14.00,2013-03-04 22:38:00,
2013-03-04 16:43:00,32.7,27.2,29.89,East,88,6.0,9.0,80,0.00,,---,0.00,VWS V14.00,2013-03-04 22:43:00,
2013-03-04 16:48:00,32.7,27.2,29.88,East,98,7.0,12.0,80,0.00,,---,0.00,VWS V14.00,2013-03-04 22:48:00,
2013-03-04 16:53:00,32.7,27.2,29.88,East,88,5.0,9.0,80,0.00,,---,0.00,VWS V14.00,2013-03-04 22:53:00,
2013-03-04 16:58:00,32.7,27.2,29.88,East,90,9.0,9.0,80,0.00,,---,0.00,VWS V14.00,2013-03-04 22:58:00,
2013-03-04 17:03:00,32.7,27.2,29.88,East,88,4.0,6.0,80,0.00,,---,0.00,VWS V14.00,2013-03-04 23:03:00,
2013-03-04 17:08:00,32.7,27.2,29.88,East,87,5.0,7.0,80,0.00,,---,0.00,VWS V14.00,2013-03-04 23:08:00,
2013-03-04 17:13:00,32.5,27.0,29.88,East,88,3.0,7.0,80,0.00,,---,0.00,VWS V14.00,2013-03-04 23:13:00,
2013-03-04 17:18:00,32.5,27.0,29.89,East,90,6.0,6.0,80,0.00,,---,0.00,VWS V14.00,2013-03-04 23:18:00,
2013-03-04 17:23:00,32.5,27.0,29.89,East,89,5.0,6.0,80,0.00,,---,0.00,VWS V14.00,2013-03-04 23:23:00,
2013-03-04 17:28:00,32.5,27.0,29.89,East,88,2.0,4.0,80,0.00,,---,0.00,VWS V14.00,2013-03-04 23:28:00,
2013-03-04 17:34:00,32.5,27.0,29.89,East,88,3.0,3.0,80,0.00,,---,0.00,VWS V14.00,2013-03-04 23:34:00,
2013-03-04 17:39:00,32.5,27.3,29.89,East,88,2.0,4.0,81,0.00,,---,0.00,VWS V14.00,2013-03-04 23:39:00,
2013-03-04 17:44:00,32.5,27.3,29.89,East,88,2.0,4.0,81,0.00,,---,0.00,VWS V14.00,2013-03-04 23:44:00,
2013-03-04 17:49:00,32.5,27.3,29.89,East,88,4.0,4.0,81,0.00,,---,0.00,VWS V14.00,2013-03-04 23:49:00,
2013-03-04 17:54:00,32.5,27.3,29.89,East,88,2.0,5.0,81,0.00,,---,0.00,VWS V14.00,2013-03-04 23:54:00,
2013-03-04 17:59:00,32.5,27.3,29.89,East,88,3.0,3.0,81,0.00,,---,0.00,VWS V14.00,2013-03-04 23:59:00,
2013-03-04 18:04:00,32.5,27.3,29.89,East,88,3.0,3.0,81,0.00,,---,0.00,VWS V14.00,2013-03-05 00:04:00,
2013-03-04 18:09:00,32.5,27.3,29.89,East,87,3.0,4.0,81,0.00,,---,0.00,VWS V14.00,2013-03-05 00:09:00,
2013-03-04 18:14:00,32.5,27.3,29.89,East,87,5.0,5.0,81,0.00,,---,0.00,VWS V14.00,2013-03-05 00:14:00,
2013-03-04 18:19:00,32.5,27.3,29.90,East,87,4.0,5.0,81,0.00,,---,0.00,VWS V14.00,2013-03-05 00:19:00,
2013-03-04 18:24:00,32.5,27.3,29.90,East,86,4.0,6.0,81,0.00,,---,0.00,VWS V14.00,2013-03-05 00:24:00,
2013-03-04 18:29:00,32.7,27.5,29.90,East,86,6.0,6.0,81,0.00,,---,0.00,VWS V14.00,2013-03-05 00:29:00,
2013-03-04 18:34:00,32.7,27.5,29.90,East,88,3.0,7.0,81,0.00,,---,0.00,VWS V14.00,2013-03-05 00:34:00,
2013-03-04 18:39:00,32.8,27.6,29.90,East,89,6.0,7.0,81,0.00,,---,0.00,VWS V14.00,2013-03-05 00:39:00,
2013-03-04 18:44:00,32.8,27.6,29.90,East,90,6.0,9.0,81,0.00,,---,0.00,VWS V14.00,2013-03-05 00:44:00,
2013-03-04 18:49:00,32.8,27.3,29.91,East,87,3.0,6.0,80,0.00,,---,0.00,VWS V14.00,2013-03-05 00:49:00,
2013-03-04 18:55:00,32.8,27.3,29.91,East,86,4.0,5.0,80,0.00,,---,0.00,VWS V14.00,2013-03-05 00:55:00,
2013-03-04 19:00:00,32.8,27.3,29.91,East,86,3.0,7.0,80,0.00,,---,0.00,VWS V14.00,2013-03-05 01:00:00,
2013-03-04 19:05:00,32.8,27.3,29.91,East,86,4.0,5.0,80,0.00,,---,0.00,VWS V14.00,2013-03-05 01:05:00,
2013-03-04 19:10:00,32.8,27.6,29.91,East,86,2.0,6.0,81,0.00,,---,0.00,VWS V14.00,2013-03-05 01:10:00,
2013-03-04 19:15:00,32.8,27.6,29.91,East,86,4.0,5.0,81,0.00,,---,0.00,VWS V14.00,2013-03-05 01:15:00,
2013-03-04 19:20:00,32.7,27.5,29.91,East,86,3.0,4.0,81,0.00,,---,0.00,VWS V14.00,2013-03-05 01:20:00,
2013-03-04 19:25:00,32.7,27.8,29.91,East,84,3.0,4.0,82,0.00,,---,0.00,VWS V14.00,2013-03-05 01:25:00,
2013-03-04 19:30:00,32.7,28.1,29.91,East,84,3.0,4.0,83,0.00,,---,0.00,VWS V14.00,2013-03-05 01:30:00,
2013-03-04 19:35:00,32.5,27.9,29.91,East,84,3.0,4.0,83,0.00,,---,0.00,VWS V14.00,2013-03-05 01:35:00,
2013-03-04 19:40:00,32.5,28.2,29.91,East,84,4.0,5.0,84,0.00,,---,0.00,VWS V14.00,2013-03-05 01:40:00,
2013-03-04 19:45:00,32.5,28.2,29.91,East,84,4.0,5.0,84,0.00,,---,0.00,VWS V14.00,2013-03-05 01:45:00,
2013-03-04 19:50:00,32.5,28.5,29.91,East,84,2.0,4.0,85,0.00,,---,0.00,VWS V14.00,2013-03-05 01:50:00,
2013-03-04 19:55:00,32.5,28.5,29.91,East,85,2.0,4.0,85,0.00,,---,0.00,VWS V14.00,2013-03-05 01:55:00,
2013-03-04 20:00:00,32.5,28.5,29.91,East,84,3.0,4.0,85,0.00,,---,0.00,VWS V14.00,2013-03-05 02:00:00,
2013-03-04 20:05:00,32.5,28.5,29.91,East,84,5.0,5.0,85,0.00,,---,0.00,VWS V14.00,2013-03-05 02:05:00,
2013-03-04 20:10:00,32.5,28.5,29.91,East,85,2.0,3.0,85,0.00,,---,0.00,VWS V14.00,2013-03-05 02:10:00,
2013-03-04 20:15:00,32.5,28.5,29.91,East,86,3.0,3.0,85,0.00,,---,0.00,VWS V14.00,2013-03-05 02:15:00,
2013-03-04 20:20:00,32.5,28.5,29.91,East,86,3.0,4.0,85,0.00,,---,0.00,VWS V14.00,2013-03-05 02:20:00,
2013-03-04 20:25:00,32.5,28.5,29.91,East,86,2.0,4.0,85,0.00,,---,0.00,VWS V14.00,2013-03-05 02:25:00,
2013-03-04 20:30:00,32.5,28.5,29.91,East,86,2.0,2.0,85,0.00,,---,0.00,VWS V14.00,2013-03-05 02:30:00,
2013-03-04 20:35:00,32.5,28.5,29.91,East,86,2.0,2.0,85,0.00,,---,0.00,VWS V14.00,2013-03-05 02:35:00,
2013-03-04 20:40:00,32.7,28.7,29.91,East,85,2.0,6.0,85,0.00,,---,0.00,VWS V14.00,2013-03-05 02:40:00,
2013-03-04 20:45:00,32.7,28.7,29.91,East,85,2.0,4.0,85,0.00,,---,0.00,VWS V14.00,2013-03-05 02:45:00,
2013-03-04 20:51:00,32.7,28.7,29.91,East,85,1.0,5.0,85,0.00,,---,0.00,VWS V14.00,2013-03-05 02:51:00,
2013-03-04 20:56:00,32.8,28.8,29.91,East,85,2.0,4.0,85,0.00,,---,0.00,VWS V14.00,2013-03-05 02:56:00,
2013-03-04 21:01:00,32.8,28.5,29.91,East,85,2.0,4.0,84,0.00,,---,0.00,VWS V14.00,2013-03-05 03:01:00,
2013-03-04 21:06:00,32.8,28.5,29.91,East,85,3.0,4.0,84,0.00,,---,0.00,VWS V14.00,2013-03-05 03:06:00,
2013-03-04 21:11:00,32.8,28.5,29.91,East,85,3.0,4.0,84,0.00,,---,0.00,VWS V14.00,2013-03-05 03:11:00,
2013-03-04 21:16:00,32.8,28.5,29.90,East,84,2.0,5.0,84,0.00,,---,0.00,VWS V14.00,2013-03-05 03:16:00,
2013-03-04 21:21:00,32.8,28.5,29.90,East,82,3.0,5.0,84,0.00,,---,0.00,VWS V14.00,2013-03-05 03:21:00,
2013-03-04 21:26:00,32.8,28.5,29.90,East,82,3.0,3.0,84,0.00,,---,0.00,VWS V14.00,2013-03-05 03:26:00,
2013-03-04 21:31:00,32.8,28.5,29.90,East,82,4.0,4.0,84,0.00,,---,0.00,VWS V14.00,2013-03-05 03:31:00,
2013-03-04 21:36:00,32.8,28.5,29.90,East,82,3.0,3.0,84,0.00,,---,0.00,VWS V14.00,2013-03-05 03:36:00,
2013-03-04 21:41:00,32.8,28.5,29.90,East,82,1.0,3.0,84,0.00,,---,0.00,VWS V14.00,2013-03-05 03:41:00,
2013-03-04 21:46:00,32.8,28.5,29.89,East,81,3.0,3.0,84,0.00,,---,0.00,VWS V14.00,2013-03-05 03:46:00,
2013-03-04 21:51:00,32.8,28.5,29.89,East,82,2.0,3.0,84,0.00,,---,0.00,VWS V14.00,2013-03-05 03:51:00,
2013-03-04 21:56:00,32.8,28.5,29.89,East,81,2.0,4.0,84,0.00,,---,0.00,VWS V14.00,2013-03-05 03:56:00,
2013-03-04 22:01:00,32.8,28.8,29.89,East,81,3.0,4.0,85,0.00,,---,0.00,VWS V14.00,2013-03-05 04:01:00,
2013-03-04 22:07:00,32.7,28.7,29.89,East,81,2.0,3.0,85,0.00,,---,0.00,VWS V14.00,2013-03-05 04:07:00,
2013-03-04 22:12:00,32.7,28.7,29.89,East,82,2.0,4.0,85,0.00,,---,0.00,VWS V14.00,2013-03-05 04:12:00,
2013-03-04 22:17:00,32.7,28.7,29.89,East,82,2.0,3.0,85,0.00,,---,0.00,VWS V14.00,2013-03-05 04:17:00,
2013-03-04 22:22:00,32.7,28.7,29.89,East,82,3.0,5.0,85,0.00,,---,0.00,VWS V14.00,2013-03-05 04:22:00,
2013-03-04 22:27:00,32.7,28.7,29.89,East,82,3.0,4.0,85,0.00,,---,0.00,VWS V14.00,2013-03-05 04:27:00,
2013-03-04 22:32:00,32.7,28.7,29.89,East,82,3.0,3.0,85,0.00,,---,0.00,VWS V14.00,2013-03-05 04:32:00,
2013-03-04 22:37:00,32.7,29.0,29.89,East,82,2.0,4.0,86,0.00,,---,0.00,VWS V14.00,2013-03-05 04:37:00,
2013-03-04 22:42:00,32.7,29.0,29.89,East,83,3.0,6.0,86,0.00,,---,0.00,VWS V14.00,2013-03-05 04:42:00,
2013-03-04 22:47:00,32.7,29.0,29.89,East,83,2.0,2.0,86,0.00,,---,0.00,VWS V14.00,2013-03-05 04:47:00,
2013-03-04 22:52:00,32.7,29.0,29.89,East,83,2.0,2.0,86,0.00,,---,0.00,VWS V14.00,2013-03-05 04:52:00,
2013-03-04 22:57:00,32.8,29.1,29.89,East,84,3.0,4.0,86,0.00,,---,0.00,VWS V14.00,2013-03-05 04:57:00,
2013-03-04 23:00:00,32.8,29.1,29.89,East,84,1.0,4.0,86,0.00,,---,0.00,VWS V14.00,2013-03-05 05:00:00,
2013-03-04 23:05:00,32.8,29.1,29.89,East,84,2.0,3.0,86,0.00,,---,0.00,VWS V14.00,2013-03-05 05:05:00,
2013-03-04 23:10:00,32.8,29.1,29.89,East,84,2.0,3.0,86,0.00,,---,0.00,VWS V14.00,2013-03-05 05:10:00,
2013-03-04 23:15:00,32.8,29.1,29.89,East,84,1.0,4.0,86,0.00,,---,0.00,VWS V14.00,2013-03-05 05:15:00,
2013-03-04 23:20:00,32.8,29.1,29.87,East,84,2.0,3.0,86,0.00,,---,0.00,VWS V14.00,2013-03-05 05:20:00,
2013-03-04 23:25:00,32.8,29.1,29.87,East,84,1.0,4.0,86,0.00,,---,0.00,VWS V14.00,2013-03-05 05:25:00,
2013-03-04 23:31:00,32.8,29.1,29.87,East,84,1.0,3.0,86,0.00,,---,0.00,VWS V14.00,2013-03-05 05:31:00,
2013-03-04 23:36:00,32.8,29.1,29.87,East,84,1.0,3.0,86,0.00,,---,0.00,VWS V14.00,2013-03-05 05:36:00,
2013-03-04 23:41:00,32.8,29.1,29.87,East,84,1.0,1.0,86,0.00,,---,0.00,VWS V14.00,2013-03-05 05:41:00,
2013-03-04 23:46:00,32.8,29.1,29.87,East,84,0.0,2.0,86,0.00,,---,0.00,VWS V14.00,2013-03-05 05:46:00,
2013-03-04 23:51:00,32.8,29.1,29.87,East,84,3.0,3.0,86,0.00,,---,0.00,VWS V14.00,2013-03-05 05:51:00,
2013-03-04 23:56:00,32.8,29.1,29.87,East,84,0.0,2.0,86,0.00,,---,0.00,VWS V14.00,2013-03-05 05:56:00,